Etusivu
METAR-TAF:

METAR-TAF

Lentoasemat :

Pearland Regional Airport

Houston / Pearland, Texas, Yhdysvallat

Leveyspiiri: 29-31-16N, Pituuspiiri: 095-14-31W, korkeus merenpinnasta: 13 m

Tämänhetkinen sää

Tämä raportti tehtiin 1 tunti ja 0 minuuttia sitten, kello 01.53 UTC
Tuuli 4 kn kaakosta
Lämpötila 17°C
Kosteus 88%
Ilmanpaine 1017 hPa
Näkyvyys: 11.3 km
selkeää

METAR: KLVJ 200153Z AUTO 13004KT 7SM CLR 17/15 A3002 RMK AO2 SLP165 T01720150

Aika: 20:53 (02:53 UTC)


TAF: puuttuu

Säähavainnot ja -ennusteet yli 4000 lentoasemalta (METAR- ja TAF-raportit).

Käytössä olevat sääasemat on merkitty karttaan keltaisilla ja punaisilla pisteillä.

Aseta hiiri pisteen päälle nähdäksesi sääaseman nimen.

Klikkaa sitten nähdäksesi säähavainnot ja -ennusteet.

Kartan vaihtaminen: klikkaa mustalla rastilla varustettuja vihreitä pisteitä, niin voit zoomata sisään; viivalla varustettua vihreää pistettä, niin voit zoomata ulos tai vihreitä nuolia, niin pääset viereisille kartoille.


METAR-TAF: